Wetterdaten: Woche 08.11.10 - 14.11.10 (KW45)
Datum Zeit Temp. Innen Temp. Aussen UV X Diff Temp. Feuchte Inne Feuchte Auss Sonnenschein Luftdruck Regen ab 0,1 Wind Sonnenschein T Regendauer Windben
08.11.2010 00:00 16,0 C 5,9 C 0,0 UV-I 0,0 C 56 % 89 % 0 % 996,0 hPa 0,0 l/m 2,4 km/h (1 Bft) 0,00 h 0,00 h 4,5 km/h (1 Bft)
08.11.2010 01:00 16,0 C 6,0 C 0,0 UV-I 0,0 C 56 % 89 % 0 % 994,7 hPa 0,0 l/m 0,7 km/h (0 Bft) 0,00 h 0,00 h 1,9 km/h (1 Bft)
08.11.2010 02:00 15,9 C 6,2 C 0,0 UV-I 0,0 C 56 % 89 % 0 % 993,5 hPa 0,0 l/m 1,1 km/h (1 Bft) 0,00 h 0,00 h 3,1 km/h (1 Bft)
08.11.2010 03:00 15,8 C 6,3 C 0,0 UV-I 0,0 C 55 % 88 % 0 % 992,0 hPa 0,0 l/m 4,7 km/h (1 Bft) 0,00 h 0,23 h 7,0 km/h (2 Bft)
08.11.2010 04:00 15,4 C 5,9 C 0,0 UV-I 0,0 C 55 % 89 % 0 % 990,6 hPa 0,9 l/m 6,2 km/h (2 Bft) 0,00 h 0,87 h 8,4 km/h (2 Bft)
08.11.2010 05:00 15,1 C 5,5 C 0,0 UV-I 0,0 C 56 % 92 % 0 % 989,4 hPa 1,2 l/m 4,0 km/h (1 Bft) 0,00 h 0,90 h 6,7 km/h (2 Bft)
08.11.2010 06:00 15,1 C 5,4 C 0,0 UV-I 0,0 C 57 % 93 % 0 % 988,0 hPa 0,1 l/m 2,5 km/h (1 Bft) 0,00 h 0,43 h 4,8 km/h (1 Bft)
08.11.2010 07:00 14,9 C 5,3 C 0,9 UV-I 0,0 C 56 % 93 % 0 % 986,9 hPa 0,0 l/m 5,6 km/h (1 Bft) 0,00 h 0,13 h 7,5 km/h (2 Bft)
08.11.2010 08:00 14,8 C 5,5 C 2,5 UV-I 0,0 C 57 % 94 % 0 % 986,1 hPa 0,0 l/m 5,3 km/h (1 Bft) 0,00 h 0,07 h 8,0 km/h (2 Bft)
08.11.2010 09:00 14,8 C 5,9 C 4,3 UV-I 0,0 C 57 % 94 % 1 % 984,8 hPa 0,0 l/m 6,0 km/h (2 Bft) 0,00 h 0,00 h 9,6 km/h (2 Bft)
08.11.2010 10:00 15,1 C 6,4 C 5,6 UV-I 0,3 C 57 % 94 % 8 % 984,0 hPa 0,0 l/m 4,4 km/h (1 Bft) 0,00 h 0,00 h 7,4 km/h (2 Bft)
08.11.2010 11:00 15,3 C 7,4 C 6,5 UV-I 1,3 C 57 % 93 % 37 % 983,0 hPa 0,0 l/m 6,4 km/h (2 Bft) 0,00 h 0,00 h 10,2 km/h (2 Bft)
08.11.2010 12:00 15,5 C 7,9 C 1,2 UV-I 0,4 C 56 % 87 % 11 % 981,6 hPa 0,0 l/m 7,9 km/h (2 Bft) 0,00 h 0,00 h 12,6 km/h (3 Bft)
08.11.2010 13:00 15,5 C 7,8 C 0,7 UV-I 0,1 C 55 % 81 % 3 % 980,3 hPa 0,0 l/m 8,6 km/h (2 Bft) 0,00 h 0,00 h 13,3 km/h (3 Bft)
08.11.2010 14:00 16,2 C 9,3 C 1,4 UV-I 3,1 C 52 % 72 % 83 % 979,7 hPa 0,0 l/m 14,0 km/h (3 Bft) 0,73 h 0,00 h 19,0 km/h (3 Bft)
08.11.2010 15:00 18,1 C 9,3 C 0,6 UV-I 2,9 C 47 % 69 % 71 % 979,9 hPa 0,0 l/m 12,5 km/h (3 Bft) 0,70 h 0,00 h 16,0 km/h (3 Bft)
08.11.2010 16:00 17,8 C 7,9 C 0,2 UV-I 0,0 C 46 % 71 % 0 % 978,1 hPa 0,0 l/m 9,0 km/h (2 Bft) 0,00 h 0,00 h 13,2 km/h (3 Bft)
08.11.2010 17:00 16,6 C 6,9 C 0,0 UV-I 0,0 C 48 % 73 % 0 % 977,2 hPa 0,0 l/m 7,5 km/h (2 Bft) 0,00 h 0,00 h 11,2 km/h (2 Bft)
08.11.2010 18:00 16,0 C 6,0 C 0,0 UV-I 0,0 C 49 % 73 % 0 % 976,1 hPa 0,0 l/m 6,4 km/h (2 Bft) 0,00 h 0,00 h 8,6 km/h (2 Bft)
08.11.2010 19:00 15,7 C 5,3 C 0,0 UV-I 0,0 C 51 % 78 % 0 % 976,1 hPa 0,0 l/m 4,3 km/h (1 Bft) 0,00 h 0,00 h 8,6 km/h (2 Bft)
08.11.2010 20:00 15,5 C 5,2 C 0,0 UV-I 0,0 C 52 % 82 % 0 % 975,5 hPa 0,0 l/m 7,1 km/h (2 Bft) 0,00 h 0,00 h 9,9 km/h (2 Bft)
08.11.2010 21:00 15,4 C 5,5 C 0,0 UV-I 0,0 C 52 % 83 % 0 % 975,3 hPa 0,0 l/m 7,4 km/h (2 Bft) 0,00 h 0,50 h 10,6 km/h (2 Bft)
08.11.2010 22:00 15,5 C 5,7 C 0,0 UV-I 0,0 C 53 % 85 % 0 % 975,1 hPa 0,3 l/m 7,3 km/h (2 Bft) 0,00 h 0,70 h 10,7 km/h (2 Bft)
08.11.2010 23:00 15,5 C 5,6 C 0,0 UV-I 0,0 C 53 % 88 % 0 % 974,6 hPa 1,0 l/m 6,3 km/h (2 Bft) 0,00 h 1,00 h 8,7 km/h (2 Bft)
09.11.2010 00:00 15,5 C 5,6 C 0,0 UV-I 0,0 C 54 % 89 % 0 % 974,3 hPa 0,5 l/m 5,6 km/h (1 Bft) 0,00 h 1,00 h 9,5 km/h (2 Bft)
09.11.2010 01:00 15,5 C 5,7 C 0,0 UV-I 0,0 C 54 % 90 % 0 % 974,2 hPa 0,4 l/m 6,2 km/h (2 Bft) 0,00 h 1,00 h 10,2 km/h (2 Bft)
09.11.2010 02:00 15,5 C 5,6 C 0,0 UV-I 0,0 C 54 % 91 % 0 % 974,2 hPa 0,1 l/m 7,2 km/h (2 Bft) 0,00 h 0,70 h 11,8 km/h (2 Bft)
09.11.2010 03:00 15,4 C 5,5 C 0,0 UV-I 0,0 C 55 % 91 % 0 % 974,0 hPa 0,2 l/m 6,1 km/h (2 Bft) 0,00 h 0,73 h 8,8 km/h (2 Bft)
09.11.2010 04:00 15,3 C 5,5 C 0,0 UV-I 0,0 C 55 % 91 % 0 % 973,9 hPa 0,0 l/m 3,3 km/h (1 Bft) 0,00 h 0,00 h 5,2 km/h (1 Bft)
09.11.2010 05:00 15,4 C 5,5 C 0,0 UV-I 0,0 C 55 % 91 % 0 % 974,2 hPa 0,1 l/m 3,7 km/h (1 Bft) 0,00 h 0,47 h 6,2 km/h (2 Bft)
09.11.2010 06:00 15,4 C 5,6 C 0,0 UV-I 0,0 C 55 % 91 % 0 % 974,6 hPa 0,5 l/m 2,9 km/h (1 Bft) 0,00 h 0,80 h 5,9 km/h (2 Bft)
09.11.2010 07:00 15,4 C 5,7 C 1,4 UV-I 0,0 C 55 % 92 % 0 % 975,0 hPa 0,0 l/m 2,6 km/h (1 Bft) 0,00 h 0,00 h 5,6 km/h (1 Bft)
09.11.2010 08:00 15,4 C 5,9 C 3,4 UV-I 0,0 C 56 % 93 % 0 % 975,4 hPa 0,0 l/m 2,1 km/h (1 Bft) 0,00 h 0,00 h 4,6 km/h (1 Bft)
09.11.2010 09:00 15,4 C 6,3 C 5,6 UV-I 0,0 C 56 % 93 % 1 % 976,2 hPa 0,0 l/m 2,7 km/h (1 Bft) 0,00 h 0,03 h 6,2 km/h (2 Bft)
09.11.2010 10:00 15,6 C 6,9 C 9,6 UV-I 0,1 C 56 % 92 % 3 % 976,5 hPa 0,0 l/m 5,2 km/h (1 Bft) 0,00 h 0,27 h 8,5 km/h (2 Bft)
09.11.2010 11:00 15,7 C 7,6 C 9,9 UV-I 0,5 C 56 % 92 % 14 % 976,9 hPa 0,0 l/m 5,5 km/h (1 Bft) 0,00 h 0,00 h 8,4 km/h (2 Bft)
09.11.2010 12:00 15,9 C 8,4 C 2,0 UV-I 0,5 C 56 % 91 % 14 % 977,0 hPa 0,0 l/m 5,8 km/h (2 Bft) 0,00 h 0,00 h 8,5 km/h (2 Bft)
09.11.2010 13:00 16,2 C 9,3 C 1,3 UV-I 1,2 C 56 % 88 % 33 % 977,0 hPa 0,0 l/m 5,3 km/h (1 Bft) 0,00 h 0,00 h 9,2 km/h (2 Bft)
09.11.2010 14:00 16,6 C 9,7 C 1,0 UV-I 0,3 C 55 % 86 % 8 % 977,1 hPa 0,0 l/m 2,3 km/h (1 Bft) 0,00 h 0,00 h 4,4 km/h (1 Bft)
09.11.2010 15:00 16,6 C 9,7 C 0,5 UV-I 0,0 C 54 % 83 % 0 % 977,3 hPa 0,0 l/m 3,6 km/h (1 Bft) 0,00 h 0,00 h 5,3 km/h (1 Bft)
09.11.2010 16:00 16,2 C 9,1 C 0,1 UV-I 0,0 C 55 % 86 % 0 % 977,6 hPa 0,2 l/m 1,9 km/h (1 Bft) 0,00 h 0,90 h 3,9 km/h (1 Bft)
09.11.2010 17:00 16,0 C 8,4 C 0,0 UV-I 0,0 C 57 % 90 % 0 % 978,0 hPa 0,9 l/m 1,5 km/h (1 Bft) 0,00 h 1,00 h 2,7 km/h (1 Bft)
09.11.2010 18:00 15,9 C 8,2 C 0,0 UV-I 0,0 C 58 % 92 % 0 % 978,0 hPa 0,4 l/m 1,2 km/h (1 Bft) 0,00 h 1,00 h 2,7 km/h (1 Bft)
09.11.2010 19:00 15,9 C 8,1 C 0,0 UV-I 0,0 C 58 % 93 % 0 % 978,7 hPa 0,5 l/m 1,2 km/h (1 Bft) 0,00 h 1,00 h 2,9 km/h (1 Bft)
09.11.2010 20:00 15,9 C 8,2 C 0,0 UV-I 0,0 C 59 % 94 % 0 % 978,8 hPa 0,1 l/m 1,5 km/h (1 Bft) 0,00 h 0,50 h 3,4 km/h (1 Bft)
09.11.2010 21:00 15,9 C 8,2 C 0,0 UV-I 0,0 C 59 % 94 % 0 % 979,0 hPa 0,1 l/m 1,0 km/h (0 Bft) 0,00 h 0,23 h 2,3 km/h (1 Bft)
09.11.2010 22:00 15,9 C 8,0 C 0,0 UV-I 0,0 C 59 % 94 % 0 % 979,3 hPa 0,0 l/m 0,8 km/h (0 Bft) 0,00 h 0,10 h 0,7 km/h (0 Bft)
09.11.2010 23:00 15,9 C 8,0 C 0,0 UV-I 0,0 C 59 % 94 % 0 % 979,3 hPa 0,0 l/m 0,5 km/h (0 Bft) 0,00 h 0,00 h 1,2 km/h (1 Bft)
10.11.2010 00:00 15,9 C 8,1 C 0,0 UV-I 0,0 C 59 % 94 % 0 % 979,6 hPa 0,0 l/m 0,1 km/h (0 Bft) 0,00 h 0,00 h 0,0 km/h (0 Bft)
10.11.2010 01:00 15,9 C 8,0 C 0,0 UV-I 0,0 C 59 % 95 % 0 % 979,9 hPa 0,0 l/m 0,3 km/h (0 Bft) 0,00 h 0,20 h 1,0 km/h (0 Bft)
10.11.2010 02:00 15,9 C 7,9 C 0,0 UV-I 0,0 C 60 % 95 % 0 % 980,4 hPa 0,0 l/m 0,7 km/h (0 Bft) 0,00 h 0,07 h 2,1 km/h (1 Bft)
10.11.2010 03:00 15,9 C 7,9 C 0,0 UV-I 0,0 C 60 % 95 % 0 % 980,7 hPa 0,1 l/m 0,5 km/h (0 Bft) 0,00 h 0,60 h 0,8 km/h (0 Bft)
10.11.2010 04:00 15,9 C 7,9 C 0,0 UV-I 0,0 C 60 % 95 % 0 % 980,9 hPa 0,2 l/m 0,4 km/h (0 Bft) 0,00 h 0,43 h 1,1 km/h (1 Bft)
10.11.2010 05:00 15,9 C 7,8 C 0,0 UV-I 0,0 C 60 % 95 % 0 % 981,4 hPa 1,0 l/m 0,1 km/h (0 Bft) 0,00 h 0,93 h 0,4 km/h (0 Bft)
10.11.2010 06:00 15,9 C 7,9 C 0,0 UV-I 0,0 C 60 % 95 % 0 % 981,8 hPa 0,0 l/m 0,0 km/h (0 Bft) 0,00 h 0,13 h 0,0 km/h (0 Bft)
10.11.2010 07:00 15,9 C 7,8 C 2,5 UV-I 0,0 C 60 % 95 % 0 % 982,6 hPa 0,4 l/m 0,0 km/h (0 Bft) 0,00 h 0,67 h 0,0 km/h (0 Bft)
10.11.2010 08:00 15,9 C 7,5 C 6,3 UV-I 0,0 C 60 % 95 % 0 % 983,5 hPa 0,6 l/m 2,7 km/h (1 Bft) 0,00 h 0,87 h 5,4 km/h (1 Bft)
10.11.2010 09:00 15,9 C 6,6 C 6,4 UV-I 0,0 C 60 % 94 % 0 % 984,6 hPa 0,5 l/m 4,7 km/h (1 Bft) 0,00 h 0,80 h 8,8 km/h (2 Bft)
10.11.2010 10:00 15,9 C 6,3 C 7,2 UV-I 0,0 C 59 % 95 % 0 % 985,5 hPa 0,6 l/m 4,6 km/h (1 Bft) 0,00 h 0,73 h 6,7 km/h (2 Bft)
10.11.2010 11:00 15,9 C 6,3 C 7,0 UV-I 0,0 C 59 % 95 % 0 % 987,0 hPa 0,1 l/m 4,1 km/h (1 Bft) 0,00 h 0,80 h 7,7 km/h (2 Bft)
10.11.2010 12:00 15,8 C 6,2 C 4,8 UV-I 0,0 C 58 % 94 % 0 % 987,9 hPa 0,3 l/m 3,8 km/h (1 Bft) 0,00 h 0,77 h 6,1 km/h (2 Bft)
10.11.2010 13:00 15,8 C 6,3 C 4,1 UV-I 0,0 C 58 % 94 % 0 % 989,0 hPa 0,3 l/m 6,6 km/h (2 Bft) 0,00 h 1,00 h 10,4 km/h (2 Bft)
10.11.2010 14:00 15,7 C 6,1 C 4,4 UV-I 0,0 C 59 % 94 % 0 % 990,6 hPa 0,5 l/m 11,2 km/h (2 Bft) 0,00 h 1,00 h 17,8 km/h (3 Bft)
10.11.2010 15:00 15,7 C 6,0 C 3,5 UV-I 0,0 C 59 % 94 % 0 % 992,2 hPa 0,3 l/m 7,6 km/h (2 Bft) 0,00 h 1,00 h 9,3 km/h (2 Bft)
10.11.2010 16:00 15,6 C 5,9 C 3,3 UV-I 0,0 C 58 % 93 % 0 % 994,0 hPa 0,0 l/m 3,8 km/h (1 Bft) 0,00 h 0,07 h 5,4 km/h (1 Bft)
10.11.2010 17:00 15,6 C 5,8 C 0,2 UV-I 0,0 C 58 % 93 % 0 % 995,2 hPa 0,0 l/m 0,6 km/h (0 Bft) 0,00 h 0,00 h 1,7 km/h (1 Bft)
10.11.2010 18:00 15,5 C 5,2 C 0,0 UV-I 0,0 C 57 % 93 % 0 % 996,8 hPa 0,0 l/m 0,3 km/h (0 Bft) 0,00 h 0,00 h 1,0 km/h (0 Bft)
10.11.2010 19:00 15,3 C 4,7 C 0,0 UV-I 0,0 C 57 % 94 % 0 % 998,0 hPa 0,0 l/m 0,6 km/h (0 Bft) 0,00 h 0,10 h 2,0 km/h (1 Bft)
10.11.2010 20:00 15,2 C 4,7 C 0,0 UV-I 0,0 C 56 % 94 % 0 % 999,2 hPa 0,0 l/m 1,2 km/h (1 Bft) 0,00 h 0,00 h 2,5 km/h (1 Bft)
10.11.2010 21:00 15,1 C 4,3 C 0,0 UV-I 0,0 C 56 % 94 % 0 % 1000,5 hPa 0,0 l/m 1,2 km/h (1 Bft) 0,00 h 0,00 h 3,1 km/h (1 Bft)
10.11.2010 22:00 15,0 C 4,2 C 0,0 UV-I 0,0 C 56 % 94 % 0 % 1001,7 hPa 0,0 l/m 1,5 km/h (1 Bft) 0,00 h 0,10 h 3,5 km/h (1 Bft)
10.11.2010 23:00 15,0 C 4,5 C 0,0 UV-I 0,0 C 55 % 94 % 0 % 1002,4 hPa 0,1 l/m 1,6 km/h (1 Bft) 0,00 h 0,40 h 2,9 km/h (1 Bft)
11.11.2010 00:00 14,9 C 5,0 C 0,0 UV-I 0,0 C 55 % 94 % 0 % 1003,2 hPa 0,0 l/m 4,2 km/h (1 Bft) 0,00 h 0,07 h 8,8 km/h (2 Bft)
11.11.2010 01:00 14,8 C 4,8 C 0,0 UV-I 0,0 C 55 % 93 % 0 % 1004,1 hPa 0,0 l/m 5,9 km/h (2 Bft) 0,00 h 0,00 h 8,9 km/h (2 Bft)
11.11.2010 02:00 14,8 C 4,7 C 0,0 UV-I 0,0 C 55 % 93 % 0 % 1004,9 hPa 0,0 l/m 3,5 km/h (1 Bft) 0,00 h 0,03 h 5,1 km/h (1 Bft)
11.11.2010 03:00 14,7 C 4,7 C 0,0 UV-I 0,0 C 55 % 93 % 0 % 1005,7 hPa 0,0 l/m 3,7 km/h (1 Bft) 0,00 h 0,00 h 5,5 km/h (1 Bft)
11.11.2010 04:00 14,6 C 4,7 C 0,0 UV-I 0,0 C 55 % 93 % 0 % 1005,8 hPa 0,0 l/m 3,7 km/h (1 Bft) 0,00 h 0,00 h 6,3 km/h (2 Bft)
11.11.2010 05:00 14,6 C 4,2 C 0,0 UV-I 0,0 C 55 % 92 % 0 % 1006,0 hPa 0,0 l/m 3,2 km/h (1 Bft) 0,00 h 0,00 h 5,5 km/h (1 Bft)
11.11.2010 06:00 14,4 C 3,8 C 0,0 UV-I 0,0 C 54 % 92 % 0 % 1006,1 hPa 0,0 l/m 4,6 km/h (1 Bft) 0,00 h 0,00 h 8,2 km/h (2 Bft)
11.11.2010 07:00 14,3 C 3,6 C 1,0 UV-I 0,0 C 54 % 92 % 0 % 1005,8 hPa 0,0 l/m 3,7 km/h (1 Bft) 0,00 h 0,13 h 6,7 km/h (2 Bft)
11.11.2010 08:00 14,4 C 3,7 C 3,6 UV-I 0,0 C 54 % 91 % 0 % 1005,7 hPa 0,0 l/m 6,3 km/h (2 Bft) 0,00 h 0,00 h 10,0 km/h (2 Bft)
11.11.2010 09:00 14,4 C 4,9 C 5,1 UV-I 1,0 C 53 % 87 % 29 % 1005,2 hPa 0,0 l/m 6,9 km/h (2 Bft) 0,20 h 0,00 h 12,5 km/h (3 Bft)
11.11.2010 10:00 14,6 C 5,7 C 7,0 UV-I 0,0 C 52 % 82 % 0 % 1004,0 hPa 0,0 l/m 9,5 km/h (2 Bft) 0,00 h 0,00 h 14,9 km/h (3 Bft)
11.11.2010 11:00 14,6 C 6,2 C 9,0 UV-I 0,0 C 51 % 77 % 0 % 1002,9 hPa 0,0 l/m 10,3 km/h (2 Bft) 0,00 h 0,00 h 14,4 km/h (3 Bft)
11.11.2010 12:00 14,5 C 6,6 C 10,3 UV-I 0,0 C 50 % 75 % 0 % 1001,0 hPa 0,0 l/m 12,1 km/h (2 Bft) 0,00 h 0,00 h 17,9 km/h (3 Bft)
11.11.2010 13:00 14,4 C 6,9 C 8,8 UV-I 0,0 C 50 % 76 % 0 % 999,0 hPa 0,0 l/m 11,4 km/h (2 Bft) 0,00 h 0,43 h 17,4 km/h (3 Bft)
11.11.2010 14:00 14,4 C 6,9 C 6,2 UV-I 0,0 C 51 % 80 % 0 % 996,6 hPa 0,5 l/m 13,0 km/h (3 Bft) 0,00 h 1,00 h 22,0 km/h (4 Bft)
11.11.2010 15:00 14,3 C 6,5 C 5,6 UV-I 0,0 C 53 % 86 % 0 % 994,1 hPa 2,3 l/m 13,1 km/h (3 Bft) 0,00 h 1,00 h 18,6 km/h (3 Bft)
11.11.2010 16:00 14,4 C 6,2 C 5,6 UV-I 0,0 C 54 % 91 % 0 % 991,6 hPa 3,7 l/m 13,7 km/h (3 Bft) 0,00 h 1,00 h 18,2 km/h (3 Bft)
11.11.2010 17:00 14,4 C 6,5 C 0,2 UV-I 0,0 C 55 % 92 % 0 % 990,2 hPa 0,3 l/m 11,4 km/h (2 Bft) 0,00 h 0,37 h 15,0 km/h (3 Bft)
11.11.2010 18:00 14,4 C 8,3 C 0,0 UV-I 0,0 C 57 % 89 % 0 % 988,0 hPa 0,0 l/m 13,6 km/h (3 Bft) 0,00 h 0,00 h 19,1 km/h (3 Bft)
11.11.2010 19:00 14,4 C 9,8 C 0,0 UV-I 0,0 C 58 % 85 % 0 % 985,6 hPa 0,1 l/m 15,6 km/h (3 Bft) 0,00 h 0,30 h 23,3 km/h (4 Bft)
11.11.2010 20:00 14,4 C 10,5 C 0,0 UV-I 0,0 C 60 % 87 % 0 % 983,7 hPa 0,9 l/m 16,6 km/h (3 Bft) 0,00 h 0,57 h 21,8 km/h (4 Bft)
11.11.2010 21:00 14,4 C 10,4 C 0,0 UV-I 0,0 C 63 % 90 % 0 % 985,0 hPa 2,4 l/m 14,3 km/h (3 Bft) 0,00 h 0,70 h 18,9 km/h (3 Bft)
11.11.2010 22:00 14,5 C 10,3 C 0,0 UV-I 0,0 C 63 % 89 % 0 % 985,7 hPa 0,6 l/m 9,4 km/h (2 Bft) 0,00 h 0,53 h 12,4 km/h (3 Bft)
11.11.2010 23:00 14,6 C 10,0 C 0,0 UV-I 0,0 C 63 % 87 % 0 % 986,5 hPa 0,0 l/m 11,8 km/h (2 Bft) 0,00 h 0,00 h 14,9 km/h (3 Bft)
12.11.2010 00:00 14,4 C 9,9 C 0,0 UV-I 0,0 C 61 % 84 % 0 % 986,7 hPa 0,0 l/m 11,7 km/h (2 Bft) 0,00 h 0,00 h 14,7 km/h (3 Bft)
12.11.2010 01:00 14,3 C 10,0 C 0,0 UV-I 0,0 C 60 % 81 % 0 % 987,2 hPa 0,0 l/m 11,9 km/h (2 Bft) 0,00 h 0,00 h 16,2 km/h (3 Bft)
12.11.2010 02:00 14,3 C 10,2 C 0,0 UV-I 0,0 C 59 % 79 % 0 % 987,9 hPa 0,0 l/m 12,3 km/h (3 Bft) 0,00 h 0,00 h 17,3 km/h (3 Bft)
12.11.2010 03:00 14,4 C 10,4 C 0,0 UV-I 0,0 C 59 % 79 % 0 % 988,1 hPa 0,0 l/m 15,3 km/h (3 Bft) 0,00 h 0,30 h 21,2 km/h (4 Bft)
12.11.2010 04:00 14,4 C 10,7 C 0,0 UV-I 0,0 C 59 % 78 % 0 % 988,9 hPa 0,0 l/m 16,3 km/h (3 Bft) 0,00 h 0,17 h 22,0 km/h (4 Bft)
12.11.2010 05:00 14,4 C 10,6 C 0,0 UV-I 0,0 C 58 % 79 % 0 % 989,6 hPa 0,0 l/m 15,9 km/h (3 Bft) 0,00 h 0,00 h 20,5 km/h (4 Bft)
12.11.2010 06:00 14,5 C 10,6 C 0,0 UV-I 0,0 C 59 % 79 % 0 % 990,5 hPa 0,0 l/m 15,0 km/h (3 Bft) 0,00 h 0,03 h 17,5 km/h (3 Bft)
12.11.2010 07:00 14,5 C 10,8 C 1,8 UV-I 0,0 C 59 % 77 % 0 % 991,0 hPa 0,0 l/m 15,3 km/h (3 Bft) 0,00 h 0,10 h 18,8 km/h (3 Bft)
12.11.2010 08:00 14,7 C 11,1 C 4,8 UV-I 0,0 C 58 % 77 % 0 % 991,8 hPa 0,0 l/m 16,0 km/h (3 Bft) 0,00 h 0,23 h 20,6 km/h (4 Bft)
12.11.2010 09:00 14,9 C 11,3 C 6,1 UV-I 0,0 C 58 % 76 % 0 % 992,7 hPa 0,0 l/m 15,0 km/h (3 Bft) 0,00 h 0,17 h 18,7 km/h (3 Bft)
12.11.2010 10:00 15,2 C 11,7 C 7,9 UV-I 0,0 C 58 % 76 % 0 % 993,2 hPa 0,0 l/m 16,5 km/h (3 Bft) 0,00 h 0,17 h 21,2 km/h (4 Bft)
12.11.2010 11:00 15,5 C 12,1 C 7,6 UV-I 0,1 C 57 % 74 % 4 % 993,9 hPa 0,0 l/m 17,6 km/h (3 Bft) 0,00 h 0,00 h 20,9 km/h (4 Bft)
12.11.2010 12:00 16,0 C 13,2 C 5,8 UV-I 2,2 C 57 % 70 % 64 % 994,6 hPa 0,0 l/m 19,8 km/h (4 Bft) 0,23 h 0,03 h 23,0 km/h (4 Bft)
12.11.2010 13:00 16,5 C 13,1 C 1,6 UV-I 0,6 C 55 % 71 % 16 % 995,2 hPa 0,0 l/m 19,5 km/h (3 Bft) 0,00 h 0,00 h 25,3 km/h (4 Bft)
12.11.2010 14:00 16,6 C 12,7 C 0,8 UV-I 0,0 C 55 % 73 % 1 % 995,3 hPa 0,0 l/m 15,6 km/h (3 Bft) 0,00 h 0,20 h 19,1 km/h (3 Bft)
12.11.2010 15:00 16,3 C 12,3 C 0,8 UV-I 0,0 C 56 % 77 % 0 % 995,1 hPa 0,0 l/m 17,4 km/h (3 Bft) 0,00 h 0,13 h 24,6 km/h (4 Bft)
12.11.2010 16:00 16,0 C 11,2 C 1,3 UV-I 0,0 C 59 % 84 % 0 % 995,2 hPa 0,2 l/m 14,7 km/h (3 Bft) 0,00 h 1,00 h 17,7 km/h (3 Bft)
12.11.2010 17:00 15,8 C 10,6 C 0,0 UV-I 0,0 C 61 % 90 % 0 % 995,2 hPa 1,2 l/m 7,9 km/h (2 Bft) 0,00 h 1,00 h 11,0 km/h (2 Bft)
12.11.2010 18:00 15,4 C 10,4 C 0,0 UV-I 0,0 C 64 % 92 % 0 % 994,3 hPa 1,5 l/m 5,4 km/h (1 Bft) 0,00 h 1,00 h 8,7 km/h (2 Bft)
12.11.2010 19:00 15,4 C 10,7 C 0,0 UV-I 0,0 C 65 % 93 % 0 % 993,7 hPa 1,4 l/m 5,7 km/h (1 Bft) 0,00 h 1,00 h 9,1 km/h (2 Bft)
12.11.2010 20:00 15,4 C 11,0 C 0,0 UV-I 0,0 C 66 % 94 % 0 % 992,6 hPa 2,3 l/m 2,5 km/h (1 Bft) 0,00 h 1,00 h 5,4 km/h (1 Bft)
12.11.2010 21:00 15,7 C 12,3 C 0,0 UV-I 0,0 C 67 % 94 % 0 % 991,7 hPa 0,4 l/m 10,9 km/h (2 Bft) 0,00 h 0,80 h 14,7 km/h (3 Bft)
12.11.2010 22:00 16,0 C 13,4 C 0,0 UV-I 0,0 C 70 % 93 % 0 % 991,8 hPa 0,1 l/m 17,0 km/h (3 Bft) 0,00 h 0,43 h 24,2 km/h (4 Bft)
12.11.2010 23:00 16,2 C 13,8 C 0,0 UV-I 0,0 C 70 % 91 % 0 % 992,3 hPa 0,0 l/m 17,8 km/h (3 Bft) 0,00 h 0,43 h 24,3 km/h (4 Bft)
13.11.2010 00:00 16,3 C 13,7 C 0,0 UV-I 0,0 C 71 % 91 % 0 % 992,3 hPa 0,3 l/m 16,1 km/h (3 Bft) 0,00 h 0,93 h 20,7 km/h (4 Bft)
13.11.2010 01:00 16,4 C 13,5 C 0,0 UV-I 0,0 C 71 % 93 % 0 % 992,7 hPa 1,0 l/m 14,0 km/h (3 Bft) 0,00 h 0,60 h 18,0 km/h (3 Bft)
13.11.2010 02:00 16,4 C 13,7 C 0,0 UV-I 0,0 C 72 % 93 % 0 % 992,4 hPa 0,5 l/m 15,1 km/h (3 Bft) 0,00 h 0,57 h 22,9 km/h (4 Bft)
13.11.2010 03:00 16,5 C 14,0 C 0,0 UV-I 0,0 C 72 % 93 % 0 % 992,7 hPa 0,1 l/m 14,8 km/h (3 Bft) 0,00 h 0,50 h 17,2 km/h (3 Bft)
13.11.2010 04:00 16,6 C 14,2 C 0,0 UV-I 0,0 C 72 % 92 % 0 % 992,6 hPa 0,4 l/m 13,1 km/h (3 Bft) 0,00 h 0,70 h 18,5 km/h (3 Bft)
13.11.2010 05:00 16,7 C 14,3 C 0,0 UV-I 0,0 C 73 % 92 % 0 % 992,3 hPa 0,5 l/m 15,5 km/h (3 Bft) 0,00 h 0,43 h 20,2 km/h (4 Bft)
13.11.2010 06:00 16,7 C 14,3 C 0,0 UV-I 0,0 C 73 % 92 % 0 % 992,5 hPa 1,8 l/m 14,0 km/h (3 Bft) 0,00 h 0,63 h 17,9 km/h (3 Bft)
13.11.2010 07:00 16,7 C 13,3 C 0,0 UV-I 0,0 C 73 % 93 % 0 % 993,2 hPa 3,0 l/m 8,9 km/h (2 Bft) 0,00 h 0,93 h 10,6 km/h (2 Bft)
13.11.2010 08:00 16,4 C 12,8 C 0,0 UV-I 0,0 C 73 % 94 % 0 % 993,7 hPa 2,6 l/m 4,2 km/h (1 Bft) 0,00 h 1,00 h 7,9 km/h (2 Bft)
13.11.2010 09:00 16,4 C 12,3 C 0,0 UV-I 0,0 C 73 % 95 % 0 % 994,5 hPa 0,4 l/m 4,3 km/h (1 Bft) 0,00 h 0,67 h 6,7 km/h (2 Bft)
13.11.2010 10:00 16,3 C 11,5 C 0,0 UV-I 0,0 C 72 % 94 % 0 % 994,9 hPa 1,2 l/m 2,0 km/h (1 Bft) 0,00 h 0,97 h 3,9 km/h (1 Bft)
13.11.2010 11:00 16,3 C 11,2 C 0,0 UV-I 0,0 C 71 % 94 % 0 % 995,6 hPa 3,2 l/m 2,0 km/h (1 Bft) 0,00 h 1,00 h 4,2 km/h (1 Bft)
13.11.2010 12:00 16,4 C 11,3 C 0,0 UV-I 0,0 C 71 % 95 % 0 % 995,9 hPa 1,3 l/m 1,7 km/h (1 Bft) 0,00 h 1,00 h 3,3 km/h (1 Bft)
13.11.2010 13:00 16,4 C 11,5 C 0,0 UV-I 0,0 C 70 % 94 % 0 % 996,0 hPa 0,6 l/m 5,8 km/h (2 Bft) 0,00 h 1,00 h 8,6 km/h (2 Bft)
13.11.2010 14:00 16,4 C 11,2 C 0,0 UV-I 0,0 C 69 % 94 % 0 % 996,4 hPa 0,7 l/m 5,3 km/h (1 Bft) 0,00 h 1,00 h 7,5 km/h (2 Bft)
13.11.2010 15:00 16,2 C 11,1 C 0,0 UV-I 0,0 C 69 % 94 % 0 % 996,3 hPa 1,0 l/m 1,9 km/h (1 Bft) 0,00 h 1,00 h 3,7 km/h (1 Bft)
13.11.2010 16:00 16,2 C 11,2 C 0,0 UV-I 0,0 C 70 % 94 % 0 % 996,1 hPa 0,9 l/m 1,5 km/h (1 Bft) 0,00 h 1,00 h 4,2 km/h (1 Bft)
13.11.2010 17:00 16,2 C 11,2 C 0,0 UV-I 0,0 C 70 % 95 % 0 % 996,0 hPa 1,2 l/m 2,1 km/h (1 Bft) 0,00 h 1,00 h 4,2 km/h (1 Bft)
13.11.2010 18:00 16,2 C 11,2 C 0,0 UV-I 0,0 C 70 % 95 % 0 % 996,3 hPa 3,0 l/m 2,2 km/h (1 Bft) 0,00 h 1,00 h 5,2 km/h (1 Bft)
13.11.2010 19:00 16,3 C 11,2 C 0,0 UV-I 0,0 C 70 % 95 % 0 % 996,3 hPa 2,6 l/m 2,4 km/h (1 Bft) 0,00 h 1,00 h 4,8 km/h (1 Bft)
13.11.2010 20:00 16,3 C 11,1 C 0,0 UV-I 0,0 C 70 % 95 % 0 % 996,0 hPa 1,4 l/m 1,7 km/h (1 Bft) 0,00 h 1,00 h 3,5 km/h (1 Bft)
13.11.2010 21:00 16,3 C 11,1 C 0,0 UV-I 0,0 C 70 % 95 % 0 % 995,9 hPa 1,5 l/m 3,1 km/h (1 Bft) 0,00 h 1,00 h 5,0 km/h (1 Bft)
13.11.2010 22:00 16,2 C 11,1 C 0,0 UV-I 0,0 C 70 % 96 % 0 % 996,1 hPa 1,1 l/m 1,8 km/h (1 Bft) 0,00 h 1,00 h 4,3 km/h (1 Bft)
13.11.2010 23:00 16,4 C 11,0 C 0,0 UV-I 0,0 C 70 % 96 % 0 % 995,9 hPa 1,3 l/m 3,2 km/h (1 Bft) 0,00 h 1,00 h 5,0 km/h (1 Bft)
14.11.2010 00:00 16,4 C 11,2 C 0,0 UV-I 0,0 C 70 % 96 % 0 % 995,3 hPa 0,4 l/m 4,6 km/h (1 Bft) 0,00 h 1,00 h 6,1 km/h (2 Bft)
14.11.2010 01:00 16,4 C 12,0 C 0,0 UV-I 0,0 C 70 % 96 % 0 % 995,0 hPa 0,1 l/m 1,6 km/h (1 Bft) 0,00 h 0,53 h 3,2 km/h (1 Bft)
14.11.2010 02:00 16,4 C 13,0 C 0,0 UV-I 0,0 C 71 % 96 % 0 % 995,1 hPa 0,1 l/m 4,6 km/h (1 Bft) 0,00 h 0,37 h 8,3 km/h (2 Bft)
14.11.2010 03:00 16,5 C 13,5 C 0,0 UV-I 0,0 C 71 % 94 % 0 % 994,9 hPa 0,2 l/m 5,5 km/h (1 Bft) 0,00 h 0,30 h 9,3 km/h (2 Bft)
14.11.2010 04:00 16,6 C 13,6 C 0,0 UV-I 0,0 C 71 % 92 % 0 % 994,6 hPa 0,0 l/m 4,3 km/h (1 Bft) 0,00 h 0,13 h 6,4 km/h (2 Bft)
14.11.2010 05:00 16,6 C 13,6 C 0,0 UV-I 0,0 C 71 % 90 % 0 % 994,4 hPa 0,0 l/m 4,2 km/h (1 Bft) 0,00 h 0,17 h 8,8 km/h (2 Bft)
14.11.2010 06:00 16,6 C 13,8 C 0,0 UV-I 0,0 C 70 % 89 % 0 % 994,1 hPa 0,2 l/m 7,5 km/h (2 Bft) 0,00 h 0,67 h 10,5 km/h (2 Bft)
14.11.2010 07:00 16,5 C 14,0 C 0,0 UV-I 0,0 C 71 % 87 % 0 % 994,0 hPa 0,0 l/m 7,9 km/h (2 Bft) 0,00 h 0,27 h 13,1 km/h (3 Bft)
14.11.2010 08:00 16,4 C 14,0 C 0,0 UV-I 0,0 C 71 % 86 % 0 % 994,4 hPa 0,0 l/m 3,8 km/h (1 Bft) 0,00 h 0,10 h 4,9 km/h (1 Bft)
14.11.2010 09:00 16,6 C 14,2 C 0,0 UV-I 0,0 C 70 % 85 % 0 % 994,8 hPa 0,0 l/m 3,0 km/h (1 Bft) 0,00 h 0,00 h 3,6 km/h (1 Bft)
14.11.2010 10:00 16,8 C 14,5 C 0,0 UV-I 0,0 C 69 % 83 % 0 % 995,0 hPa 0,0 l/m 3,6 km/h (1 Bft) 0,00 h 0,07 h 5,1 km/h (1 Bft)
14.11.2010 11:00 16,9 C 14,5 C 0,0 UV-I 0,0 C 68 % 82 % 0 % 995,0 hPa 0,0 l/m 2,3 km/h (1 Bft) 0,00 h 0,07 h 3,1 km/h (1 Bft)
14.11.2010 12:00 17,0 C 14,5 C 0,0 UV-I 0,0 C 68 % 82 % 0 % 995,3 hPa 0,1 l/m 3,0 km/h (1 Bft) 0,00 h 0,73 h 3,4 km/h (1 Bft)
14.11.2010 13:00 17,0 C 13,8 C 0,0 UV-I 0,0 C 68 % 86 % 0 % 995,6 hPa 0,7 l/m 0,9 km/h (0 Bft) 0,00 h 0,80 h 1,5 km/h (1 Bft)
14.11.2010 14:00 17,1 C 13,7 C 0,0 UV-I 0,0 C 69 % 89 % 0 % 995,8 hPa 0,1 l/m 4,7 km/h (1 Bft) 0,00 h 0,43 h 5,7 km/h (1 Bft)
14.11.2010 15:00 17,0 C 13,9 C 0,0 UV-I 0,0 C 68 % 87 % 0 % 996,4 hPa 0,2 l/m 9,1 km/h (2 Bft) 0,00 h 0,53 h 11,6 km/h (2 Bft)
14.11.2010 16:00 16,8 C 13,9 C 0,0 UV-I 0,0 C 68 % 85 % 0 % 996,9 hPa 0,0 l/m 7,9 km/h (2 Bft) 0,00 h 0,00 h 8,8 km/h (2 Bft)
14.11.2010 17:00 16,6 C 14,0 C 0,0 UV-I 0,0 C 68 % 83 % 0 % 997,4 hPa 0,0 l/m 8,2 km/h (2 Bft) 0,00 h 0,00 h 9,3 km/h (2 Bft)
14.11.2010 18:00 16,6 C 14,1 C 0,0 UV-I 0,0 C 66 % 79 % 0 % 998,1 hPa 0,0 l/m 10,5 km/h (2 Bft) 0,00 h 0,00 h 10,6 km/h (2 Bft)
14.11.2010 19:00 16,5 C 14,0 C 0,0 UV-I 0,0 C 66 % 79 % 0 % 998,5 hPa 0,0 l/m 10,0 km/h (2 Bft) 0,00 h 0,00 h 11,1 km/h (2 Bft)
14.11.2010 20:00 16,4 C 14,0 C 0,0 UV-I 0,0 C 65 % 78 % 0 % 999,1 hPa 0,0 l/m 11,9 km/h (2 Bft) 0,00 h 0,00 h 13,3 km/h (3 Bft)
14.11.2010 21:00 16,3 C 13,8 C 0,0 UV-I 0,0 C 64 % 75 % 0 % 1000,3 hPa 0,0 l/m 13,4 km/h (3 Bft) 0,00 h 0,00 h 15,4 km/h (3 Bft)
14.11.2010 22:00 16,1 C 12,8 C 0,0 UV-I 0,0 C 61 % 72 % 0 % 1001,9 hPa 0,0 l/m 11,8 km/h (2 Bft) 0,00 h 0,00 h 14,1 km/h (3 Bft)
14.11.2010 23:00 16,1 C 11,7 C 0,0 UV-I 0,0 C 58 % 71 % 0 % 1003,7 hPa 0,0 l/m 12,6 km/h (3 Bft) 0,00 h 0,00 h 14,6 km/h (3 Bft)
Min-Datum _ 11.11.10 11.11.10 08.11.10 08.11.10 08.11.10 08.11.10 08.11.10 09.11.10 - 08.11.10 - - 08.11.10
_ Min-Zeit 07:16 07:44 00:00 00:00 15:56 15:12 00:00 04:06 - 02:06 - - 00:00
Minimum _ 14,2 C 3,4 C 0,0 UV-I 0,0 C 46 % 67 % 0 % 973,8 hPa - 0,0 km/h (0 Bft) - - 0,0 km/h (0 Bft)
Max-Datum _ 08.11.10 14.11.10 12.11.10 08.11.10 13.11.10 13.11.10 08.11.10 11.11.10 11.11.10 12.11.10 08.11.10 08.11.10 12.11.10
_ Max-Zeit 15:32 10:44 12:10 15:16 04:40 22:10 14:20 05:46 16:16 12:24 14:16 03:02 15:24
Maximum _ 18,4 C 14,7 C 15,3 UV-I 4,6 C 73 % 96 % 100 % 1006,2 hPa 3,7 l/m 23,7 km/h
S-SO (4 Bft)
0,03 h 0,03 h 58,9 km/h
W-SW (7 Bft)
Durchschnitt _ 15,7 C 9,1 C 1,2 UV-I 0,1 C 60 % 88 % 2 % 990,0 hPa #63,3 l/m 6,9 km/h (2 Bft) #1:52 h #66:56 h 9,8 km/h (2 Bft)
© 2012 W. Hausmann